Time;durP1;ratioP1;P1;durP2;ratioP2;P2;SDS_P1;SDS_P2;PMS_P1;PMS_P2;Temp;Humidity;BMP_temperature;BMP_pressure;BME280_temperature;BME280_humidity;BME280_pressure;Samples;Min_cycle;Max_cycle;Signal;HPM_P1;HPM_P2
2022/07/16 00:02:19;;;;;;;5.78;3.60;;;16.10;99.90;;;;;;5049935;28;20053;-71
2022/07/16 00:04:45;;;;;;;5.32;3.40;;;16.10;99.90;;;;;;5070402;28;20527;-73
2022/07/16 00:07:10;;;;;;;6.05;3.38;;;16.20;99.90;;;;;;5051840;28;20515;-71
2022/07/16 00:09:36;;;;;;;6.10;3.40;;;16.40;99.90;;;;;;5072567;28;20495;-71
2022/07/16 00:12:02;;;;;;;7.88;3.70;;;16.00;99.90;;;;;;5070385;28;20511;-73
2022/07/16 00:14:28;;;;;;;6.45;3.55;;;16.00;99.90;;;;;;5070078;28;20364;-73
2022/07/16 00:16:54;;;;;;;7.50;3.28;;;16.10;99.90;;;;;;5071776;28;20037;-73
2022/07/16 00:19:20;;;;;;;5.88;2.90;;;16.10;99.90;;;;;;5052655;28;20123;-71
2022/07/16 00:21:48;;;;;;;9.95;3.50;;;16.10;99.90;;;;;;5052017;28;20073;-71
2022/07/16 00:24:14;;;;;;;9.27;3.35;;;16.20;99.90;;;;;;5069604;28;20080;-71
2022/07/16 00:26:41;;;;;;;6.50;2.83;;;16.80;99.90;;;;;;5070326;28;20135;-71
2022/07/16 00:29:07;;;;;;;7.38;3.40;;;16.20;99.90;;;;;;5069961;28;20841;-71
2022/07/16 00:31:32;;;;;;;7.93;3.28;;;16.30;99.90;;;;;;5035684;28;20076;-71
2022/07/16 00:33:58;;;;;;;6.68;3.40;;;16.30;99.90;;;;;;5052573;28;20477;-71
2022/07/16 00:36:24;;;;;;;9.60;3.60;;;16.80;99.90;;;;;;5051779;28;20052;-71
2022/07/16 00:38:49;;;;;;;8.73;3.63;;;16.30;99.90;;;;;;5070996;28;20036;-71
2022/07/16 00:41:18;;;;;;;6.80;3.78;;;16.30;99.90;;;;;;5052045;28;20088;-71
2022/07/16 00:43:52;;;;;;;6.78;3.97;;;16.30;99.90;;;;;;5069585;28;20454;-71
2022/07/16 00:46:18;;;;;;;6.78;3.80;;;16.30;99.90;;;;;;5072059;28;20098;-71
2022/07/16 00:48:45;;;;;;;8.80;4.35;;;16.20;99.90;;;;;;5071998;28;20037;-71
2022/07/16 00:51:13;;;;;;;5.30;3.60;;;16.30;99.90;;;;;;5072222;28;20036;-71
2022/07/16 00:53:39;;;;;;;5.75;2.80;;;16.20;99.90;;;;;;5070397;28;20131;-71
2022/07/16 00:56:10;;;;;;;4.45;2.42;;;16.20;99.90;;;;;;5069081;28;20040;-71
2022/07/16 00:58:37;;;;;;;5.75;2.40;;;16.10;99.90;;;;;;5051005;28;20449;-71
2022/07/16 01:01:03;;;;;;;3.65;1.90;;;16.00;99.90;;;;;;5069300;28;20044;-71
2022/07/16 01:03:30;;;;;;;4.78;2.20;;;16.00;99.90;;;;;;5051167;28;20118;-71
2022/07/16 01:05:57;;;;;;;5.13;1.80;;;15.90;99.90;;;;;;5070184;28;20040;-71
2022/07/16 01:08:23;;;;;;;3.75;1.80;;;16.00;99.90;;;;;;5069200;28;20429;-71
2022/07/16 01:10:49;;;;;;;3.72;1.70;;;16.40;99.90;;;;;;5051098;28;20052;-71
2022/07/16 01:13:17;;;;;;;2.78;1.75;;;16.00;99.90;;;;;;5069231;28;20055;-71
2022/07/16 01:15:42;;;;;;;5.32;1.70;;;16.00;99.90;;;;;;5051742;28;20047;-71
2022/07/16 01:18:08;;;;;;;5.13;1.80;;;15.90;99.90;;;;;;5069399;28;20481;-71
2022/07/16 01:20:34;;;;;;;4.95;1.73;;;15.90;99.90;;;;;;5068761;28;20047;-71
2022/07/16 01:23:00;;;;;;;5.47;1.80;;;16.00;99.90;;;;;;5050000;28;20458;-71
2022/07/16 01:25:26;;;;;;;4.60;1.55;;;16.00;99.90;;;;;;5067575;28;20040;-71
2022/07/16 01:27:52;;;;;;;7.10;1.92;;;16.00;99.90;;;;;;5069406;28;20036;-71
2022/07/16 01:30:18;;;;;;;7.93;2.00;;;16.00;99.90;;;;;;5069586;28;20041;-71
2022/07/16 01:32:43;;;;;;;6.30;1.95;;;16.00;99.90;;;;;;5050364;28;20081;-71
2022/07/16 01:35:10;;;;;;;5.07;1.80;;;16.10;99.90;;;;;;5051261;28;20059;-72
2022/07/16 01:37:35;;;;;;;7.85;2.03;;;15.90;99.90;;;;;;5050906;28;20147;-71
2022/07/16 01:40:01;;;;;;;7.95;2.10;;;16.00;99.90;;;;;;5050655;28;20548;-71
2022/07/16 01:42:27;;;;;;;8.77;2.30;;;16.00;99.90;;;;;;5068017;28;20055;-72
2022/07/16 01:44:53;;;;;;;6.65;2.50;;;16.90;99.90;;;;;;5069178;28;20036;-71
2022/07/16 01:47:19;;;;;;;5.95;2.30;;;16.00;99.90;;;;;;5068799;28;20060;-72
2022/07/16 01:49:45;;;;;;;5.78;2.25;;;16.00;99.90;;;;;;5069045;28;20098;-72
2022/07/16 01:52:20;;;;;;;6.47;2.42;;;16.00;99.90;;;;;;5068511;28;20048;-72
2022/07/16 01:54:53;;;;;;;6.83;2.20;;;16.00;99.90;;;;;;5071897;28;20040;-71
2022/07/16 01:57:20;;;;;;;8.85;2.50;;;15.90;99.90;;;;;;5070764;28;20290;-71
2022/07/16 01:59:46;;;;;;;7.35;2.70;;;16.80;99.90;;;;;;5070431;28;20754;-71
2022/07/16 02:02:13;;;;;;;7.45;2.50;;;16.00;99.90;;;;;;5069225;28;20067;-71
2022/07/16 02:04:40;;;;;;;8.00;2.53;;;16.00;99.90;;;;;;5068973;28;20040;-71
2022/07/16 02:07:06;;;;;;;7.85;2.53;;;15.90;99.90;;;;;;5067834;28;20052;-71
2022/07/16 02:09:32;;;;;;;11.07;2.65;;;16.10;99.90;;;;;;5068192;28;20044;-71
2022/07/16 02:11:58;;;;;;;5.60;2.05;;;15.90;99.90;;;;;;5068174;28;20048;-71
2022/07/16 02:14:23;;;;;;;5.97;2.30;;;15.90;99.90;;;;;;5067424;28;20123;-71
2022/07/16 02:16:49;;;;;;;5.95;2.20;;;15.90;99.90;;;;;;5069125;28;20047;-71
2022/07/16 02:19:15;;;;;;;8.50;2.20;;;16.00;99.90;;;;;;5068632;28;20044;-71
2022/07/16 02:21:41;;;;;;;6.07;2.00;;;15.80;99.90;;;;;;5067757;28;20185;-71
2022/07/16 02:24:07;;;;;;;4.45;2.28;;;15.80;99.90;;;;;;5017170;28;20044;-71
2022/07/16 02:26:32;;;;;;;6.70;1.92;;;15.80;99.90;;;;;;5058910;28;20451;-71
2022/07/16 02:28:59;;;;;;;6.90;2.10;;;15.90;99.90;;;;;;5050070;28;20124;-72
2022/07/16 02:31:24;;;;;;;5.07;2.20;;;15.60;99.90;;;;;;5050374;28;20135;-71
2022/07/16 02:33:50;;;;;;;7.32;2.15;;;15.60;99.90;;;;;;5068628;28;20206;-71
2022/07/16 02:36:16;;;;;;;7.82;2.38;;;15.60;99.90;;;;;;5067891;28;20040;-72
2022/07/16 02:38:41;;;;;;;4.53;2.00;;;15.90;99.90;;;;;;5068421;28;20049;-71
2022/07/16 02:41:07;;;;;;;7.53;2.10;;;15.70;99.90;;;;;;5049750;28;20036;-71
2022/07/16 02:43:33;;;;;;;3.50;2.00;;;15.50;99.90;;;;;;5049779;28;20199;-71
2022/07/16 02:45:58;;;;;;;7.75;2.30;;;15.50;99.90;;;;;;5067612;28;20492;-71
2022/07/16 02:48:24;;;;;;;8.60;2.33;;;16.30;99.90;;;;;;5071234;28;20546;-71
2022/07/16 02:50:49;;;;;;;6.45;2.10;;;15.40;99.90;;;;;;5045830;28;20047;-71
2022/07/16 02:53:15;;;;;;;7.75;2.47;;;15.30;99.90;;;;;;5032223;28;20458;-71
2022/07/16 02:55:41;;;;;;;5.57;2.10;;;15.30;99.90;;;;;;5066238;28;20052;-71
2022/07/16 02:58:06;;;;;;;8.80;2.30;;;15.30;99.90;;;;;;5070387;28;20402;-71
2022/07/16 03:00:32;;;;;;;9.68;2.47;;;15.40;99.90;;;;;;5068316;28;20482;-73
2022/07/16 03:02:58;;;;;;;6.03;2.47;;;15.30;99.90;;;;;;5067518;28;20431;-73
2022/07/16 03:05:24;;;;;;;6.28;2.45;;;15.30;99.90;;;;;;5067443;28;20044;-73
2022/07/16 03:07:51;;;;;;;5.78;2.13;;;15.20;99.90;;;;;;5067524;28;20040;-73
2022/07/16 03:10:16;;;;;;;5.63;2.25;;;15.20;99.90;;;;;;5067185;28;20044;-73
2022/07/16 03:12:43;;;;;;;6.40;2.20;;;15.10;99.90;;;;;;5052020;28;20500;-73
2022/07/16 03:15:11;;;;;;;6.32;2.50;;;15.10;99.90;;;;;;5068731;28;20495;-72
2022/07/16 03:17:37;;;;;;;5.65;2.28;;;15.10;99.90;;;;;;5066738;28;20040;-73
2022/07/16 03:20:03;;;;;;;7.47;2.28;;;15.10;99.90;;;;;;5067474;28;20059;-72
2022/07/16 03:22:29;;;;;;;5.20;2.13;;;15.10;99.90;;;;;;5066657;28;20037;-73
2022/07/16 03:24:54;;;;;;;5.68;2.25;;;15.10;99.90;;;;;;5067632;28;20041;-73
2022/07/16 03:27:20;;;;;;;10.75;2.60;;;15.80;99.90;;;;;;5049356;28;20493;-72
2022/07/16 03:29:46;;;;;;;8.68;2.55;;;15.10;99.90;;;;;;5048752;28;20055;-72
2022/07/16 03:32:11;;;;;;;5.85;2.38;;;15.20;99.90;;;;;;5068956;28;20133;-73
2022/07/16 03:34:37;;;;;;;6.40;2.70;;;15.00;99.90;;;;;;5067802;28;20570;-72
2022/07/16 03:37:03;;;;;;;6.57;2.45;;;15.10;99.90;;;;;;5067719;28;20040;-72
2022/07/16 03:39:28;;;;;;;13.77;2.90;;;15.50;99.90;;;;;;5066907;28;20166;-72
2022/07/16 03:41:54;;;;;;;7.18;2.80;;;15.10;99.90;;;;;;5067103;28;20032;-72
2022/07/16 03:44:20;;;;;;;6.57;2.63;;;15.10;99.90;;;;;;5068599;28;20150;-73
2022/07/16 03:46:45;;;;;;;9.43;2.47;;;15.00;99.90;;;;;;5034448;28;20048;-72
2022/07/16 03:49:11;;;;;;;7.32;2.50;;;15.70;99.90;;;;;;5071376;28;20075;-73
2022/07/16 03:51:37;;;;;;;6.65;2.90;;;15.00;99.90;;;;;;5067213;28;20130;-74
2022/07/16 03:54:03;;;;;;;9.25;2.63;;;15.00;99.90;;;;;;5067603;28;20036;-73
2022/07/16 03:56:30;;;;;;;8.52;2.45;;;15.10;99.90;;;;;;5051166;28;20049;-73
2022/07/16 03:58:55;;;;;;;8.77;2.97;;;15.10;99.90;;;;;;5066479;28;20090;-72
2022/07/16 04:01:22;;;;;;;6.47;2.75;;;15.00;99.90;;;;;;5067381;28;20040;-73
2022/07/16 04:03:49;;;;;;;11.93;2.80;;;15.00;99.90;;;;;;5067819;28;20045;-73
2022/07/16 04:06:14;;;;;;;8.18;2.88;;;15.00;99.90;;;;;;5066390;28;20363;-73
2022/07/16 04:08:40;;;;;;;10.43;3.10;;;14.90;99.90;;;;;;5066964;28;20501;-73
2022/07/16 04:11:05;;;;;;;11.90;2.92;;;15.10;99.90;;;;;;5068247;28;20520;-73
2022/07/16 04:13:31;;;;;;;6.28;2.60;;;14.90;99.90;;;;;;5066615;28;20046;-73
2022/07/16 04:15:57;;;;;;;6.90;2.90;;;14.90;99.90;;;;;;5067093;28;20048;-73
2022/07/16 04:18:22;;;;;;;5.90;2.40;;;15.50;99.90;;;;;;5048993;28;20140;-73
2022/07/16 04:20:48;;;;;;;8.43;2.88;;;14.90;99.90;;;;;;5067012;28;20044;-73
2022/07/16 04:23:14;;;;;;;10.25;2.80;;;15.10;99.90;;;;;;5066608;28;20372;-72
2022/07/16 04:25:40;;;;;;;7.57;2.60;;;14.80;99.90;;;;;;5067199;28;20049;-73
2022/07/16 04:28:06;;;;;;;7.10;2.42;;;14.80;99.90;;;;;;5048839;28;20044;-73
2022/07/16 04:30:32;;;;;;;5.55;2.45;;;15.30;99.90;;;;;;5048471;28;20099;-73
2022/07/16 04:32:58;;;;;;;7.55;2.33;;;14.80;99.90;;;;;;5050759;28;20152;-73
2022/07/16 04:35:23;;;;;;;9.23;2.50;;;14.80;99.90;;;;;;5069961;28;20096;-73
2022/07/16 04:37:49;;;;;;;9.82;2.67;;;14.80;99.90;;;;;;5071004;28;20123;-73
2022/07/16 04:40:15;;;;;;;6.38;2.30;;;15.40;99.90;;;;;;5052162;28;20139;-72
2022/07/16 04:42:43;;;;;;;7.38;2.65;;;14.80;99.90;;;;;;5069252;28;20404;-73
2022/07/16 04:45:10;;;;;;;11.88;2.50;;;14.90;99.90;;;;;;5053370;28;20101;-73
2022/07/16 04:47:36;;;;;;;9.20;2.10;;;14.90;99.90;;;;;;5071724;28;20481;-73
2022/07/16 04:50:02;;;;;;;6.45;2.17;;;15.90;99.90;;;;;;5069929;28;20119;-73
2022/07/16 04:52:30;;;;;;;9.18;2.20;;;15.00;99.90;;;;;;5070068;28;20077;-73
2022/07/16 04:54:56;;;;;;;5.95;2.20;;;14.80;99.90;;;;;;5051775;28;20044;-73
2022/07/16 04:57:22;;;;;;;7.28;2.28;;;15.10;99.90;;;;;;5069596;28;20052;-71
2022/07/16 04:59:48;;;;;;;10.48;2.45;;;15.20;99.90;;;;;;5051479;28;20064;-71
2022/07/16 05:04:57;;;;;;;5.85;1.88;;;15.20;99.90;;;;;;5070567;28;20457;-71
2022/07/16 05:07:23;;;;;;;7.43;2.00;;;15.20;99.90;;;;;;5069391;28;20067;-70
2022/07/16 05:09:49;;;;;;;8.05;1.90;;;15.20;99.90;;;;;;5052128;28;20048;-71
2022/07/16 05:12:14;;;;;;;7.00;2.05;;;15.20;99.90;;;;;;5069294;28;20163;-73
2022/07/16 05:14:40;;;;;;;6.25;1.70;;;15.50;99.90;;;;;;5069033;28;20045;-73
2022/07/16 05:17:05;;;;;;;6.97;1.70;;;15.20;99.90;;;;;;5069759;28;20123;-73
2022/07/16 05:19:31;;;;;;;6.90;1.80;;;15.30;99.90;;;;;;5068773;28;20044;-73
2022/07/16 05:21:57;;;;;;;12.05;2.47;;;15.30;99.90;;;;;;5069572;28;20499;-73
2022/07/16 05:24:23;;;;;;;8.80;1.88;;;15.30;99.90;;;;;;5051118;28;20044;-73
2022/07/16 05:26:49;;;;;;;6.95;2.17;;;15.30;99.90;;;;;;5069229;28;20461;-73
2022/07/16 05:29:15;;;;;;;6.88;1.80;;;16.30;99.90;;;;;;5069498;28;20040;-71
2022/07/16 05:31:41;;;;;;;6.03;1.60;;;15.40;99.90;;;;;;5050735;28;20049;-71
2022/07/16 05:34:06;;;;;;;6.40;1.73;;;16.20;99.90;;;;;;5069715;28;20047;-72
2022/07/16 05:36:32;;;;;;;5.55;1.70;;;15.40;99.90;;;;;;5071608;28;20429;-71
2022/07/16 05:38:58;;;;;;;9.00;1.70;;;15.40;99.90;;;;;;5050724;28;20053;-71
2022/07/16 05:41:23;;;;;;;9.15;1.83;;;15.30;99.90;;;;;;5067791;28;20119;-71
2022/07/16 05:43:49;;;;;;;5.38;1.70;;;16.00;99.90;;;;;;5068452;28;20098;-71
2022/07/16 05:46:15;;;;;;;6.90;1.58;;;15.40;99.90;;;;;;5066535;28;20044;-71
2022/07/16 05:48:40;;;;;;;5.82;1.70;;;15.40;99.90;;;;;;5051342;28;20056;-71
2022/07/16 05:51:06;;;;;;;11.18;1.88;;;15.40;99.90;;;;;;5067993;28;20120;-71
2022/07/16 05:53:31;;;;;;;5.78;1.88;;;15.40;99.90;;;;;;5051132;28;20079;-71
2022/07/16 05:55:57;;;;;;;6.90;1.75;;;15.40;99.90;;;;;;5068829;28;20087;-71
2022/07/16 05:58:22;;;;;;;7.75;1.98;;;15.50;99.90;;;;;;5068180;28;20037;-71
2022/07/16 06:00:48;;;;;;;6.05;1.55;;;15.50;99.90;;;;;;5069050;28;20110;-71
2022/07/16 06:03:14;;;;;;;8.38;1.63;;;15.50;99.90;;;;;;5062676;28;20032;-72
2022/07/16 06:05:39;;;;;;;7.80;1.40;;;15.50;99.90;;;;;;5055213;28;20053;-72
2022/07/16 06:08:05;;;;;;;8.60;1.83;;;15.50;99.90;;;;;;5049919;28;20036;-72
2022/07/16 06:10:30;;;;;;;8.38;1.92;;;15.50;99.90;;;;;;5067604;28;20153;-72
2022/07/16 06:12:57;;;;;;;5.18;1.60;;;15.60;99.90;;;;;;5050419;28;20370;-72
2022/07/16 06:15:23;;;;;;;7.35;1.58;;;15.90;99.90;;;;;;5070123;28;20051;-72
2022/07/16 06:17:48;;;;;;;7.35;1.80;;;15.50;99.90;;;;;;5069083;28;20040;-71
2022/07/16 06:20:14;;;;;;;5.43;1.60;;;15.60;99.90;;;;;;5068156;28;20048;-71
2022/07/16 06:22:40;;;;;;;6.32;1.70;;;15.60;99.90;;;;;;5045136;28;20048;-71
2022/07/16 06:25:06;;;;;;;7.10;1.38;;;16.00;99.90;;;;;;5059015;28;20033;-71
2022/07/16 06:27:32;;;;;;;4.15;1.45;;;15.80;99.90;;;;;;5035233;28;20056;-71
2022/07/16 06:30:05;;;;;;;7.40;1.65;;;16.10;99.90;;;;;;5048665;28;20041;-71
2022/07/16 06:32:31;;;;;;;7.10;1.65;;;15.80;99.90;;;;;;5048097;28;20065;-71
2022/07/16 06:34:57;;;;;;;4.90;1.30;;;15.90;99.90;;;;;;5067130;28;20036;-71
2022/07/16 06:37:23;;;;;;;6.47;1.65;;;16.70;99.90;;;;;;5050658;28;20073;-71
2022/07/16 06:39:48;;;;;;;4.45;1.63;;;15.90;99.90;;;;;;5068403;28;20041;-71
2022/07/16 06:42:14;;;;;;;10.18;1.80;;;16.30;99.90;;;;;;5066834;28;20048;-71
2022/07/16 06:44:40;;;;;;;6.78;1.63;;;16.00;99.90;;;;;;5067550;28;20155;-72
2022/07/16 06:47:06;;;;;;;6.60;1.40;;;16.10;99.90;;;;;;5050325;28;20053;-71
2022/07/16 06:49:32;;;;;;;7.13;1.60;;;16.30;99.90;;;;;;5066858;28;20071;-71
2022/07/16 06:51:58;;;;;;;5.65;1.30;;;16.20;99.90;;;;;;5067485;28;20730;-71
2022/07/16 06:54:23;;;;;;;3.80;1.30;;;16.20;99.90;;;;;;5069165;28;20037;-71
2022/07/16 06:56:49;;;;;;;4.93;1.65;;;16.30;99.90;;;;;;5067502;28;20040;-71
2022/07/16 06:59:14;;;;;;;8.18;1.60;;;16.30;99.90;;;;;;5068313;28;20051;-71
2022/07/16 07:01:40;;;;;;;6.57;1.60;;;16.30;99.90;;;;;;5067616;28;20040;-71
2022/07/16 07:04:05;;;;;;;4.68;1.40;;;16.30;99.90;;;;;;5049514;28;20101;-72
2022/07/16 07:06:31;;;;;;;7.55;1.65;;;16.80;99.90;;;;;;5067377;28;20593;-71
2022/07/16 07:08:57;;;;;;;4.53;1.52;;;17.00;99.90;;;;;;5064853;28;20035;-71
2022/07/16 07:11:22;;;;;;;6.15;1.33;;;17.20;99.90;;;;;;5066949;28;20059;-71
2022/07/16 07:13:48;;;;;;;5.95;1.45;;;16.90;99.90;;;;;;5067840;28;20052;-71
2022/07/16 07:16:14;;;;;;;4.95;1.50;;;16.80;99.90;;;;;;5067967;28;20127;-71
2022/07/16 07:18:40;;;;;;;5.93;1.50;;;16.60;99.90;;;;;;5049924;28;20051;-71
2022/07/16 07:21:05;;;;;;;5.47;1.20;;;16.60;99.90;;;;;;5067532;28;20119;-71
2022/07/16 07:23:31;;;;;;;4.38;1.40;;;16.90;99.90;;;;;;5048450;28;20128;-71
2022/07/16 07:25:57;;;;;;;4.88;1.38;;;16.70;99.90;;;;;;5067201;28;20040;-71
2022/07/16 07:28:23;;;;;;;3.92;1.27;;;16.70;99.90;;;;;;5066626;28;20166;-71
2022/07/16 07:30:48;;;;;;;3.90;1.23;;;17.00;99.90;;;;;;5066959;28;20051;-70
2022/07/16 07:33:14;;;;;;;4.82;1.73;;;16.90;99.90;;;;;;5067875;28;20461;-70
2022/07/16 07:35:40;;;;;;;7.07;1.48;;;17.00;99.90;;;;;;5067596;28;20060;-70
2022/07/16 07:38:07;;;;;;;5.78;1.40;;;17.10;99.90;;;;;;5066774;28;20068;-69
2022/07/16 07:40:33;;;;;;;5.07;1.65;;;17.10;99.90;;;;;;5049073;28;20049;-69
2022/07/16 07:42:59;;;;;;;6.28;1.60;;;17.40;99.90;;;;;;5067420;28;20039;-70
2022/07/16 07:45:26;;;;;;;6.47;1.67;;;17.50;99.90;;;;;;5066445;28;20048;-70
2022/07/16 07:47:52;;;;;;;3.85;1.40;;;17.60;99.90;;;;;;5066877;28;20154;-69
2022/07/16 07:50:18;;;;;;;4.25;1.40;;;17.80;99.90;;;;;;5049462;28;20129;-69
2022/07/16 07:52:44;;;;;;;5.95;1.65;;;17.90;99.90;;;;;;5066210;28;20084;-69
2022/07/16 07:55:09;;;;;;;11.63;2.10;;;17.90;99.90;;;;;;5067368;28;20461;-68
2022/07/16 07:57:35;;;;;;;7.70;1.73;;;17.80;99.90;;;;;;5064844;28;20051;-68
2022/07/16 08:00:01;;;;;;;5.38;1.52;;;17.90;99.90;;;;;;5066717;28;20041;-69
2022/07/16 08:02:27;;;;;;;9.52;1.75;;;17.80;99.90;;;;;;5066711;28;20079;-68
2022/07/16 08:04:52;;;;;;;4.85;1.40;;;17.90;99.90;;;;;;5062114;28;20065;-68
2022/07/16 08:07:18;;;;;;;5.65;1.27;;;17.80;99.90;;;;;;5068252;28;20726;-69
2022/07/16 08:09:44;;;;;;;5.22;1.40;;;17.80;99.90;;;;;;5044505;28;20056;-68
2022/07/16 08:12:10;;;;;;;5.35;1.55;;;17.80;99.90;;;;;;5042462;28;20484;-68
2022/07/16 08:14:36;;;;;;;8.77;1.60;;;17.90;99.90;;;;;;5052479;28;20432;-68
2022/07/16 08:17:02;;;;;;;5.57;1.63;;;17.90;99.90;;;;;;5070881;28;20132;-68
2022/07/16 08:19:27;;;;;;;6.05;1.73;;;18.10;99.90;;;;;;5069394;28;20489;-69
2022/07/16 08:21:53;;;;;;;7.28;1.40;;;18.30;99.90;;;;;;5052834;28;20054;-70
2022/07/16 08:27:04;;;;;;;6.50;1.80;;;18.50;99.90;;;;;;5069451;28;20052;-69
2022/07/16 08:29:30;;;;;;;6.68;1.52;;;18.50;99.90;;;;;;5070678;28;20389;-69
2022/07/16 08:31:56;;;;;;;9.95;1.67;;;18.50;99.90;;;;;;5055479;28;20045;-68
2022/07/16 08:34:24;;;;;;;9.18;2.00;;;18.80;99.90;;;;;;5071143;28;20064;-69
2022/07/16 08:36:52;;;;;;;9.25;1.65;;;18.80;99.90;;;;;;5070494;28;20055;-69
2022/07/16 08:39:18;;;;;;;6.47;1.70;;;18.60;99.90;;;;;;5070417;28;20397;-69
2022/07/16 08:41:44;;;;;;;6.18;1.70;;;18.40;99.90;;;;;;5050920;28;20235;-70
2022/07/16 08:44:13;;;;;;;5.15;1.70;;;18.30;99.90;;;;;;5070653;28;20136;-71
2022/07/16 08:46:40;;;;;;;5.45;1.60;;;18.50;99.90;;;;;;5069963;28;20078;-70
2022/07/16 08:49:06;;;;;;;9.02;2.00;;;18.40;99.90;;;;;;5070103;28;20397;-70
2022/07/16 08:51:34;;;;;;;5.78;1.40;;;18.50;99.90;;;;;;5052408;28;20037;-71
2022/07/16 08:54:20;;;;;;;7.70;1.67;;;18.50;99.90;;;;;;5069467;28;20110;-71
2022/07/16 08:56:46;;;;;;;5.90;1.60;;;18.60;99.90;;;;;;5072300;28;20044;-71
2022/07/16 08:59:13;;;;;;;6.30;1.60;;;18.70;99.90;;;;;;5053025;28;20040;-70
2022/07/16 09:01:39;;;;;;;7.75;1.70;;;19.20;99.90;;;;;;5069689;28;20389;-70
2022/07/16 09:04:05;;;;;;;5.50;1.48;;;18.80;99.90;;;;;;5070739;28;20048;-71
2022/07/16 09:06:31;;;;;;;4.80;1.60;;;18.90;99.90;;;;;;5069964;28;20447;-71
2022/07/16 09:08:57;;;;;;;6.38;1.50;;;19.00;99.90;;;;;;5069865;28;20457;-71
2022/07/16 09:11:29;;;;;;;4.95;1.42;;;19.10;99.90;;;;;;5069159;28;20060;-71
2022/07/16 09:14:01;;;;;;;4.68;1.50;;;19.10;99.90;;;;;;5069987;28;20037;-71
2022/07/16 09:16:53;;;;;;;8.90;1.50;;;19.20;99.90;;;;;;5058565;28;20088;-69
2022/07/16 09:19:25;;;;;;;5.45;1.60;;;19.20;99.90;;;;;;5049498;28;20156;-70
2022/07/16 09:22:09;;;;;;;6.03;1.67;;;19.30;99.90;;;;;;5069840;28;20412;-70
2022/07/16 09:24:40;;;;;;;4.57;1.65;;;19.40;99.90;;;;;;5051336;28;20044;-71
2022/07/16 09:27:14;;;;;;;6.20;1.80;;;19.50;99.90;;;;;;5051624;28;20450;-70
2022/07/16 09:30:03;;;;;;;5.40;1.60;;;19.60;99.90;;;;;;5065558;28;20040;-70
2022/07/16 09:32:39;;;;;;;6.55;1.67;;;19.60;99.90;;;;;;5072638;28;20051;-70
2022/07/16 09:35:10;;;;;;;8.25;1.70;;;19.50;99.90;;;;;;5071933;28;20047;-70
2022/07/16 09:37:53;;;;;;;5.85;1.60;;;19.60;99.90;;;;;;5068207;28;20460;-81
2022/07/16 09:40:35;;;;;;;4.85;1.70;;;20.00;99.90;;;;;;5068476;28;20131;-80
2022/07/16 09:43:03;;;;;;;6.80;1.80;;;20.20;99.90;;;;;;5043066;28;20045;-80
2022/07/16 09:45:29;;;;;;;6.60;1.60;;;20.30;99.90;;;;;;5071541;28;20051;-77
2022/07/16 09:47:55;;;;;;;5.03;1.60;;;20.50;99.90;;;;;;5068229;28;20040;-79
2022/07/16 09:50:21;;;;;;;5.63;1.52;;;20.60;99.90;;;;;;5048712;28;20097;-78
2022/07/16 09:52:47;;;;;;;5.30;1.70;;;20.80;99.90;;;;;;5046136;28;20447;-77
2022/07/16 09:55:12;;;;;;;3.03;1.30;;;21.00;98.80;;;;;;5066002;28;20040;-77
2022/07/16 09:57:42;;;;;;;4.43;1.23;;;21.40;98.10;;;;;;5048723;28;20433;-78
2022/07/16 10:00:11;;;;;;;5.70;1.70;;;21.80;96.40;;;;;;5068297;28;20368;-72
2022/07/16 10:02:37;;;;;;;5.22;1.38;;;22.20;96.60;;;;;;5050369;28;20052;-72
2022/07/16 10:05:02;;;;;;;4.30;1.35;;;22.80;95.80;;;;;;5067368;28;20385;-72
2022/07/16 10:07:28;;;;;;;4.70;1.45;;;22.60;95.50;;;;;;5050068;28;20045;-72
2022/07/16 10:09:54;;;;;;;3.88;1.60;;;22.00;95.20;;;;;;5071674;28;20469;-72
2022/07/16 10:12:20;;;;;;;7.72;1.70;;;22.30;95.40;;;;;;5050333;28;20060;-72
2022/07/16 10:14:49;;;;;;;5.25;1.48;;;22.40;95.20;;;;;;5068324;28;20413;-72
2022/07/16 10:17:23;;;;;;;6.00;1.60;;;23.10;95.30;;;;;;5050931;28;20098;-72
2022/07/16 10:20:08;;;;;;;6.70;1.60;;;25.00;94.60;;;;;;5069284;28;20485;-73
2022/07/16 10:22:39;;;;;;;4.55;1.58;;;27.80;93.00;;;;;;5049828;28;20047;-73
2022/07/16 10:25:12;;;;;;;7.38;1.63;;;30.40;89.20;;;;;;5067984;28;20052;-73
2022/07/16 10:27:38;;;;;;;4.68;1.42;;;30.60;85.90;;;;;;5067104;28;20048;-73
2022/07/16 10:30:15;;;;;;;6.03;1.60;;;31.80;86.90;;;;;;5068338;28;20051;-71
2022/07/16 10:32:59;;;;;;;4.45;1.55;;;33.40;81.40;;;;;;5068086;28;20091;-71
2022/07/16 10:35:30;;;;;;;5.07;1.40;;;34.60;78.20;;;;;;5071074;28;20102;-72
2022/07/16 10:38:05;;;;;;;4.63;1.60;;;33.50;77.60;;;;;;5051966;28;20454;-72
2022/07/16 10:40:31;;;;;;;5.82;1.58;;;33.50;76.10;;;;;;5068906;28;20060;-71
2022/07/16 10:43:16;;;;;;;5.72;1.42;;;33.60;77.70;;;;;;5067808;28;20041;-73
2022/07/16 10:45:58;;;;;;;4.85;1.45;;;32.70;75.10;;;;;;5067349;28;20052;-71
2022/07/16 10:48:37;;;;;;;4.03;1.38;;;31.10;76.40;;;;;;5068277;28;20449;-72
2022/07/16 10:51:18;;;;;;;4.70;1.50;;;31.10;75.40;;;;;;5068311;28;20045;-72
2022/07/16 10:54:01;;;;;;;5.70;1.40;;;32.70;75.50;;;;;;5066459;28;20120;-72
2022/07/16 10:56:46;;;;;;;6.32;1.63;;;33.80;73.20;;;;;;5047385;28;20076;-73
2022/07/16 10:59:13;;;;;;;;;;;33.60;73.70;;;;;;5031035;28;20084;-72
2022/07/16 11:01:41;;;;;;;4.22;1.33;;;31.50;72.90;;;;;;5048509;28;19928;-72
2022/07/16 11:04:09;;;;;;;7.25;1.60;;;31.30;73.90;;;;;;5048138;28;20114;-72
2022/07/16 11:06:36;;;;;;;7.50;1.77;;;30.80;75.50;;;;;;5031269;28;20047;-72
2022/07/16 11:09:04;;;;;;;5.65;1.48;;;30.20;76.80;;;;;;5047568;28;20448;-72
2022/07/16 11:11:34;;;;;;;4.68;1.63;;;29.20;77.20;;;;;;5047489;28;20061;-72
2022/07/16 11:14:01;;;;;;;5.70;1.70;;;28.50;78.00;;;;;;5046555;28;20057;-73
2022/07/16 11:16:27;;;;;;;5.55;1.33;;;28.20;79.80;;;;;;5040149;28;20066;-72
2022/07/16 11:18:53;;;;;;;6.03;1.65;;;27.60;80.80;;;;;;5049935;28;20405;-71
2022/07/16 11:21:19;;;;;;;4.75;1.48;;;26.90;80.30;;;;;;5066973;28;20132;-72
2022/07/16 11:23:48;;;;;;;6.72;1.77;;;26.70;80.60;;;;;;5067293;28;20043;-72
2022/07/16 11:26:15;;;;;;;8.75;1.70;;;26.30;79.50;;;;;;5067383;28;20489;-72
2022/07/16 11:28:56;;;;;;;7.97;1.85;;;26.00;80.60;;;;;;5067222;28;20181;-72
2022/07/16 11:31:29;;;;;;;5.18;1.52;;;25.90;80.30;;;;;;5067247;28;20040;-72
2022/07/16 11:34:00;;;;;;;5.50;1.52;;;26.00;80.50;;;;;;5069240;28;20051;-73
2022/07/16 11:36:27;;;;;;;4.60;1.38;;;26.30;80.20;;;;;;5067496;28;20052;-71
2022/07/16 11:39:12;;;;;;;5.47;1.45;;;26.60;79.70;;;;;;5067404;28;20500;-72
2022/07/16 11:41:47;;;;;;;5.53;1.33;;;28.20;78.80;;;;;;5069539;28;20071;-72
2022/07/16 11:44:18;;;;;;;6.53;1.67;;;27.70;77.70;;;;;;5057957;28;20123;-72
2022/07/16 11:46:50;;;;;;;4.35;1.40;;;28.20;78.70;;;;;;5055398;28;20453;-73
2022/07/16 11:49:33;;;;;;;8.13;1.65;;;28.80;77.40;;;;;;5073466;28;20049;-72
2022/07/16 11:52:14;;;;;;;5.22;1.38;;;29.90;77.20;;;;;;5056335;28;20075;-72
2022/07/16 11:54:41;;;;;;;6.65;1.70;;;31.60;75.90;;;;;;5073604;28;20127;-72
2022/07/16 11:57:09;;;;;;;7.07;1.55;;;33.20;74.90;;;;;;5055278;28;20059;-73
2022/07/16 11:59:39;;;;;;;5.20;1.55;;;35.10;73.70;;;;;;5055036;28;20048;-73
2022/07/16 12:02:08;;;;;;;6.80;1.35;;;36.70;71.80;;;;;;5073240;28;20423;-73
2022/07/16 12:04:41;;;;;;;6.38;1.50;;;37.50;70.90;;;;;;5074015;28;20087;-73
2022/07/16 12:07:16;;;;;;;4.70;1.35;;;38.70;68.00;;;;;;5073677;28;20530;-74
2022/07/16 12:09:44;;;;;;;5.18;1.30;;;39.80;67.20;;;;;;5073511;28;20048;-73
2022/07/16 12:12:14;;;;;;;5.70;1.60;;;39.60;66.20;;;;;;5075465;28;20478;-72
2022/07/16 12:15:02;;;;;;;5.28;1.60;;;38.60;64.80;;;;;;5057031;28;20048;-72
2022/07/16 12:17:28;;;;;;;4.85;1.48;;;38.60;63.50;;;;;;5073527;28;20113;-72
2022/07/16 12:20:14;;;;;;;5.53;1.60;;;36.20;63.90;;;;;;5074081;28;20052;-71
2022/07/16 12:22:58;;;;;;;5.93;1.58;;;34.10;63.50;;;;;;5075378;28;20060;-73
2022/07/16 12:25:35;;;;;;;2.90;1.30;;;31.60;64.50;;;;;;5072913;28;20122;-72
2022/07/16 12:28:11;;;;;;;7.25;1.58;;;30.00;66.50;;;;;;5075480;28;20075;-72
2022/07/16 12:30:42;;;;;;;4.10;1.13;;;28.40;68.00;;;;;;5074896;28;20041;-72
2022/07/16 12:33:22;;;;;;;4.53;1.40;;;27.80;69.00;;;;;;5073344;28;20523;-72
2022/07/16 12:36:02;;;;;;;4.90;1.40;;;27.10;69.90;;;;;;5074009;28;20223;-72
2022/07/16 12:38:44;;;;;;;6.55;1.40;;;26.30;70.90;;;;;;5056409;28;20055;-72
2022/07/16 12:41:25;;;;;;;6.70;1.50;;;25.80;72.70;;;;;;5073014;28;20076;-73
2022/07/16 12:43:53;;;;;;;4.78;1.60;;;25.50;73.30;;;;;;5055957;28;20044;-72
2022/07/16 12:46:25;;;;;;;7.40;1.45;;;25.30;74.40;;;;;;5074186;28;20094;-72
2022/07/16 12:48:55;;;;;;;6.32;1.40;;;25.10;74.70;;;;;;5076474;28;20044;-72
2022/07/16 12:51:23;;;;;;;4.32;1.58;;;24.70;75.50;;;;;;5073612;28;20044;-72
2022/07/16 12:53:50;;;;;;;6.05;1.40;;;24.20;76.40;;;;;;5069481;28;20083;-72
2022/07/16 12:59:03;;;;;;;6.30;1.50;;;24.20;77.30;;;;;;5070109;28;20049;-72